Terminal Aerodrome Forecast
Issued by NWS Shreveport, LA

Home | Current Version | Previous Version | Text Only | Print | Product List | Glossary On
Versions: 1 2 3 4 5 6 7 8 9 10 11 12 13 14 15
000
FTUS44 KSHV 051852 AAA
TAFELD
TAF AMD
KELD 051852Z 0519/0618 22008KT P6SM VCTS SCT035CB SCT100 BKN250
      TEMPO 0519/0523 VRB20G40KT 2SM TSRA BR BKN020CB
     FM052300 VRB06KT P6SM VCTS BKN040CB BKN250
      TEMPO 0523/0602 VRB15G30KT 2SM TSRA BR BKN030CB
     FM060200 18004KT P6SM FEW050 SCT250
      TEMPO 0610/0614 5SM BR BKN004
     FM061400 19006KT P6SM BKN010
     FM061600 20008KT P6SM SCT030=

USA.gov is the U.S. government's official web portal to all federal, state and local government web resources and services.